sensor_id;sensor_type;location;lat;lon;timestamp;pressure;altitude;pressure_sealevel;temperature;humidity
51439;BME280;38816;51.142;-0.974;2023-02-28T00:01:36;101708.03;;;1.30;100.00
51439;BME280;38816;51.142;-0.974;2023-02-28T00:04:01;101715.44;;;1.26;100.00
51439;BME280;38816;51.142;-0.974;2023-02-28T00:06:27;101722.69;;;1.22;100.00
51439;BME280;38816;51.142;-0.974;2023-02-28T00:08:53;101713.06;;;1.18;100.00
51439;BME280;38816;51.142;-0.974;2023-02-28T00:11:18;101713.34;;;1.11;100.00
51439;BME280;38816;51.142;-0.974;2023-02-28T00:13:45;101717.06;;;1.04;100.00
51439;BME280;38816;51.142;-0.974;2023-02-28T00:16:14;101721.41;;;0.95;100.00
51439;BME280;38816;51.142;-0.974;2023-02-28T00:18:40;101720.28;;;0.91;100.00
51439;BME280;38816;51.142;-0.974;2023-02-28T00:21:07;101725.00;;;0.76;100.00
51439;BME280;38816;51.142;-0.974;2023-02-28T00:23:32;101731.22;;;0.70;100.00
51439;BME280;38816;51.142;-0.974;2023-02-28T00:25:58;101739.31;;;0.76;100.00
51439;BME280;38816;51.142;-0.974;2023-02-28T00:28:23;101723.22;;;0.75;100.00
51439;BME280;38816;51.142;-0.974;2023-02-28T00:30:49;101739.16;;;0.85;100.00
51439;BME280;38816;51.142;-0.974;2023-02-28T00:33:14;101733.16;;;0.94;100.00
51439;BME280;38816;51.142;-0.974;2023-02-28T00:35:40;101738.06;;;1.03;100.00
51439;BME280;38816;51.142;-0.974;2023-02-28T00:38:05;101735.25;;;1.10;100.00
51439;BME280;38816;51.142;-0.974;2023-02-28T00:40:40;101728.91;;;1.15;100.00
51439;BME280;38816;51.142;-0.974;2023-02-28T00:43:05;101715.53;;;1.06;100.00
51439;BME280;38816;51.142;-0.974;2023-02-28T00:45:30;101733.25;;;1.06;100.00
51439;BME280;38816;51.142;-0.974;2023-02-28T00:47:56;101744.66;;;1.01;100.00
51439;BME280;38816;51.142;-0.974;2023-02-28T00:50:21;101739.75;;;0.92;100.00
51439;BME280;38816;51.142;-0.974;2023-02-28T00:52:47;101728.53;;;0.79;100.00
51439;BME280;38816;51.142;-0.974;2023-02-28T00:55:13;101732.47;;;0.75;100.00
51439;BME280;38816;51.142;-0.974;2023-02-28T00:57:38;101740.69;;;0.83;100.00
51439;BME280;38816;51.142;-0.974;2023-02-28T01:00:06;101742.97;;;0.80;100.00
51439;BME280;38816;51.142;-0.974;2023-02-28T01:02:32;101746.31;;;0.68;100.00
51439;BME280;38816;51.142;-0.974;2023-02-28T01:04:57;101753.75;;;0.67;100.00
51439;BME280;38816;51.142;-0.974;2023-02-28T01:07:23;101745.94;;;0.54;100.00
51439;BME280;38816;51.142;-0.974;2023-02-28T01:09:48;101748.97;;;0.49;100.00
51439;BME280;38816;51.142;-0.974;2023-02-28T01:12:15;101762.66;;;0.52;100.00
51439;BME280;38816;51.142;-0.974;2023-02-28T01:14:40;101755.31;;;0.44;100.00
51439;BME280;38816;51.142;-0.974;2023-02-28T01:17:06;101744.09;;;0.41;100.00
51439;BME280;38816;51.142;-0.974;2023-02-28T01:19:32;101742.28;;;0.40;100.00
51439;BME280;38816;51.142;-0.974;2023-02-28T01:22:01;101759.50;;;0.44;100.00
51439;BME280;38816;51.142;-0.974;2023-02-28T01:24:27;101755.97;;;0.42;100.00
51439;BME280;38816;51.142;-0.974;2023-02-28T01:26:52;101758.34;;;0.40;100.00
51439;BME280;38816;51.142;-0.974;2023-02-28T01:29:18;101756.75;;;0.41;100.00
51439;BME280;38816;51.142;-0.974;2023-02-28T01:31:43;101750.13;;;0.43;100.00
51439;BME280;38816;51.142;-0.974;2023-02-28T01:34:08;101740.78;;;0.42;100.00
51439;BME280;38816;51.142;-0.974;2023-02-28T01:36:34;101733.81;;;0.39;100.00
51439;BME280;38816;51.142;-0.974;2023-02-28T01:38:59;101738.78;;;0.38;100.00
51439;BME280;38816;51.142;-0.974;2023-02-28T01:41:27;101752.56;;;0.41;100.00
51439;BME280;38816;51.142;-0.974;2023-02-28T01:43:58;101738.13;;;0.30;100.00
51439;BME280;38816;51.142;-0.974;2023-02-28T01:46:25;101735.59;;;0.30;100.00
51439;BME280;38816;51.142;-0.974;2023-02-28T01:49:12;101755.44;;;0.36;100.00
51439;BME280;38816;51.142;-0.974;2023-02-28T01:51:45;101743.56;;;0.35;100.00
51439;BME280;38816;51.142;-0.974;2023-02-28T01:54:24;101737.50;;;0.22;100.00
51439;BME280;38816;51.142;-0.974;2023-02-28T01:56:58;101748.38;;;0.21;100.00
51439;BME280;38816;51.142;-0.974;2023-02-28T01:59:37;101755.19;;;0.22;100.00
51439;BME280;38816;51.142;-0.974;2023-02-28T02:02:11;101754.97;;;0.19;100.00
51439;BME280;38816;51.142;-0.974;2023-02-28T02:04:40;101741.44;;;0.19;100.00
51439;BME280;38816;51.142;-0.974;2023-02-28T02:07:10;101728.94;;;0.10;100.00
51439;BME280;38816;51.142;-0.974;2023-02-28T02:09:36;101746.13;;;0.14;100.00
51439;BME280;38816;51.142;-0.974;2023-02-28T02:12:15;101758.13;;;0.17;100.00
51439;BME280;38816;51.142;-0.974;2023-02-28T02:17:28;101754.06;;;0.09;100.00
51439;BME280;38816;51.142;-0.974;2023-02-28T02:20:37;101749.53;;;0.15;100.00
51439;BME280;38816;51.142;-0.974;2023-02-28T02:26:00;101745.84;;;0.21;100.00
51439;BME280;38816;51.142;-0.974;2023-02-28T02:28:45;101754.84;;;0.28;100.00
51439;BME280;38816;51.142;-0.974;2023-02-28T02:34:26;101740.56;;;0.18;100.00
51439;BME280;38816;51.142;-0.974;2023-02-28T02:39:51;101747.63;;;0.22;100.00
51439;BME280;38816;51.142;-0.974;2023-02-28T02:42:27;101740.19;;;0.24;100.00
51439;BME280;38816;51.142;-0.974;2023-02-28T02:45:07;101752.69;;;0.33;100.00
51439;BME280;38816;51.142;-0.974;2023-02-28T02:47:36;101744.34;;;0.34;100.00
51439;BME280;38816;51.142;-0.974;2023-02-28T02:50:05;101738.50;;;0.35;100.00
51439;BME280;38816;51.142;-0.974;2023-02-28T02:52:38;101747.63;;;0.43;100.00
51439;BME280;38816;51.142;-0.974;2023-02-28T02:55:06;101733.22;;;0.32;100.00
51439;BME280;38816;51.142;-0.974;2023-02-28T02:57:53;101747.63;;;0.33;100.00
51439;BME280;38816;51.142;-0.974;2023-02-28T03:00:26;101737.16;;;0.28;100.00
51439;BME280;38816;51.142;-0.974;2023-02-28T03:02:54;101739.03;;;0.31;100.00
51439;BME280;38816;51.142;-0.974;2023-02-28T03:05:26;101735.88;;;0.23;100.00
51439;BME280;38816;51.142;-0.974;2023-02-28T03:07:52;101741.31;;;0.17;100.00
51439;BME280;38816;51.142;-0.974;2023-02-28T03:10:28;101747.63;;;0.12;100.00
51439;BME280;38816;51.142;-0.974;2023-02-28T03:15:50;101737.41;;;0.11;100.00
51439;BME280;38816;51.142;-0.974;2023-02-28T03:18:28;101746.75;;;0.12;100.00
51439;BME280;38816;51.142;-0.974;2023-02-28T03:21:36;101745.84;;;0.21;100.00
51439;BME280;38816;51.142;-0.974;2023-02-28T03:24:10;101732.63;;;0.14;100.00
51439;BME280;38816;51.142;-0.974;2023-02-28T03:26:41;101727.78;;;0.17;100.00
51439;BME280;38816;51.142;-0.974;2023-02-28T03:34:38;101720.09;;;0.15;100.00
51439;BME280;38816;51.142;-0.974;2023-02-28T03:37:14;101712.50;;;0.15;100.00
51439;BME280;38816;51.142;-0.974;2023-02-28T03:39:49;101719.06;;;0.23;100.00
51439;BME280;38816;51.142;-0.974;2023-02-28T03:42:23;101739.16;;;0.32;100.00
51439;BME280;38816;51.142;-0.974;2023-02-28T03:45:27;101735.47;;;0.39;100.00
51439;BME280;38816;51.142;-0.974;2023-02-28T03:48:01;101731.28;;;0.39;100.00
51439;BME280;38816;51.142;-0.974;2023-02-28T03:53:01;101713.22;;;0.35;100.00
51439;BME280;38816;51.142;-0.974;2023-02-28T03:55:39;101725.88;;;0.35;100.00
51439;BME280;38816;51.142;-0.974;2023-02-28T03:58:37;101718.94;;;0.32;100.00
51439;BME280;38816;51.142;-0.974;2023-02-28T04:01:19;101717.00;;;0.40;100.00
51439;BME280;38816;51.142;-0.974;2023-02-28T04:03:46;101726.59;;;0.44;100.00
51439;BME280;38816;51.142;-0.974;2023-02-28T04:06:18;101730.66;;;0.42;100.00
51439;BME280;38816;51.142;-0.974;2023-02-28T04:08:44;101717.53;;;0.25;100.00
51439;BME280;38816;51.142;-0.974;2023-02-28T04:11:16;101740.19;;;0.24;100.00
51439;BME280;38816;51.142;-0.974;2023-02-28T04:13:43;101733.38;;;0.23;100.00
51439;BME280;38816;51.142;-0.974;2023-02-28T04:16:09;101733.72;;;0.17;100.00
51439;BME280;38816;51.142;-0.974;2023-02-28T04:18:38;101739.41;;;0.25;100.00
51439;BME280;38816;51.142;-0.974;2023-02-28T04:21:05;101732.22;;;0.19;100.00
51439;BME280;38816;51.142;-0.974;2023-02-28T04:23:31;101727.38;;;0.22;100.00
51439;BME280;38816;51.142;-0.974;2023-02-28T04:25:57;101743.47;;;0.33;100.00
51439;BME280;38816;51.142;-0.974;2023-02-28T04:28:22;101741.94;;;0.25;100.00
51439;BME280;38816;51.142;-0.974;2023-02-28T04:30:55;101750.16;;;0.33;100.00
51439;BME280;38816;51.142;-0.974;2023-02-28T04:33:20;101747.63;;;0.33;100.00
51439;BME280;38816;51.142;-0.974;2023-02-28T04:35:46;101738.41;;;0.33;100.00
51439;BME280;38816;51.142;-0.974;2023-02-28T04:38:11;101744.06;;;0.31;100.00
51439;BME280;38816;51.142;-0.974;2023-02-28T04:40:37;101746.97;;;0.35;100.00
51439;BME280;38816;51.142;-0.974;2023-02-28T04:43:02;101745.97;;;0.33;100.00
51439;BME280;38816;51.142;-0.974;2023-02-28T04:45:28;101756.97;;;0.34;100.00
51439;BME280;38816;51.142;-0.974;2023-02-28T04:47:57;101750.91;;;0.21;100.00
51439;BME280;38816;51.142;-0.974;2023-02-28T04:50:22;101765.84;;;0.18;100.00
51439;BME280;38816;51.142;-0.974;2023-02-28T04:52:48;101756.75;;;0.10;100.00
51439;BME280;38816;51.142;-0.974;2023-02-28T04:55:14;101761.66;;;0.09;100.00
51439;BME280;38816;51.142;-0.974;2023-02-28T04:57:39;101769.41;;;0.10;100.00
51439;BME280;38816;51.142;-0.974;2023-02-28T05:00:07;101773.19;;;0.05;100.00
51439;BME280;38816;51.142;-0.974;2023-02-28T05:02:37;101760.03;;;-0.11;100.00
51439;BME280;38816;51.142;-0.974;2023-02-28T05:05:03;101783.66;;;-0.01;100.00
51439;BME280;38816;51.142;-0.974;2023-02-28T05:07:29;101788.84;;;0.01;100.00
51439;BME280;38816;51.142;-0.974;2023-02-28T05:09:55;101781.38;;;0.03;100.00
51439;BME280;38816;51.142;-0.974;2023-02-28T05:12:20;101786.94;;;-0.02;100.00
51439;BME280;38816;51.142;-0.974;2023-02-28T05:14:45;101764.97;;;-0.03;100.00
51439;BME280;38816;51.142;-0.974;2023-02-28T05:17:11;101772.53;;;0.08;100.00
51439;BME280;38816;51.142;-0.974;2023-02-28T05:19:39;101765.06;;;-0.01;100.00
51439;BME280;38816;51.142;-0.974;2023-02-28T05:22:04;101778.38;;;-0.04;100.00
51439;BME280;38816;51.142;-0.974;2023-02-28T05:24:30;101764.06;;;-0.03;100.00
51439;BME280;38816;51.142;-0.974;2023-02-28T05:26:55;101781.88;;;-0.02;100.00
51439;BME280;38816;51.142;-0.974;2023-02-28T05:29:21;101773.41;;;-0.12;100.00
51439;BME280;38816;51.142;-0.974;2023-02-28T05:31:47;101757.72;;;-0.18;100.00
51439;BME280;38816;51.142;-0.974;2023-02-28T05:34:12;101769.88;;;-0.14;100.00
51439;BME280;38816;51.142;-0.974;2023-02-28T05:36:38;101769.88;;;-0.14;100.00
51439;BME280;38816;51.142;-0.974;2023-02-28T05:39:07;101763.69;;;-0.18;100.00
51439;BME280;38816;51.142;-0.974;2023-02-28T05:41:37;101767.94;;;-0.27;100.00
51439;BME280;38816;51.142;-0.974;2023-02-28T05:44:03;101773.00;;;-0.27;100.00
51439;BME280;38816;51.142;-0.974;2023-02-28T05:46:28;101775.69;;;-0.26;100.00
51439;BME280;38816;51.142;-0.974;2023-02-28T05:48:53;101772.75;;;-0.30;100.00
51439;BME280;38816;51.142;-0.974;2023-02-28T05:51:20;101781.88;;;-0.22;100.00
51439;BME280;38816;51.142;-0.974;2023-02-28T05:53:46;101784.03;;;-0.16;100.00
51439;BME280;38816;51.142;-0.974;2023-02-28T05:56:13;101781.78;;;-0.13;100.00
51439;BME280;38816;51.142;-0.974;2023-02-28T05:58:38;101795.13;;;-0.14;100.00
51439;BME280;38816;51.142;-0.974;2023-02-28T06:01:24;101800.69;;;-0.18;100.00
51439;BME280;38816;51.142;-0.974;2023-02-28T06:03:49;101793.38;;;-0.15;100.00
51439;BME280;38816;51.142;-0.974;2023-02-28T06:06:15;101792.25;;;-0.09;100.00
51439;BME280;38816;51.142;-0.974;2023-02-28T06:08:40;101793.88;;;-0.09;100.00
51439;BME280;38816;51.142;-0.974;2023-02-28T06:11:08;101788.59;;;-0.02;100.00
51439;BME280;38816;51.142;-0.974;2023-02-28T06:13:34;101785.56;;;0.02;100.00
51439;BME280;38816;51.142;-0.974;2023-02-28T06:16:02;101779.13;;;0.06;100.00
51439;BME280;38816;51.142;-0.974;2023-02-28T06:18:27;101771.66;;;0.07;100.00
51439;BME280;38816;51.142;-0.974;2023-02-28T06:20:54;101772.56;;;0.28;100.00
51439;BME280;38816;51.142;-0.974;2023-02-28T06:23:20;101779.34;;;0.39;100.00
51439;BME280;38816;51.142;-0.974;2023-02-28T06:25:46;101772.13;;;0.44;100.00
51439;BME280;38816;51.142;-0.974;2023-02-28T06:28:12;101785.94;;;0.47;100.00
51439;BME280;38816;51.142;-0.974;2023-02-28T06:30:38;101766.22;;;0.33;100.00
51439;BME280;38816;51.142;-0.974;2023-02-28T06:33:04;101787.19;;;0.53;100.00
51439;BME280;38816;51.142;-0.974;2023-02-28T06:35:30;101792.63;;;0.47;100.00
51439;BME280;38816;51.142;-0.974;2023-02-28T06:37:55;101784.56;;;0.41;100.00
51439;BME280;38816;51.142;-0.974;2023-02-28T06:40:20;101783.78;;;0.52;100.00
51439;BME280;38816;51.142;-0.974;2023-02-28T06:42:46;101781.00;;;0.39;100.00
51439;BME280;38816;51.142;-0.974;2023-02-28T06:45:11;101783.81;;;0.32;100.00
51439;BME280;38816;51.142;-0.974;2023-02-28T06:47:39;101786.84;;;0.28;100.00
51439;BME280;38816;51.142;-0.974;2023-02-28T06:50:05;101788.59;;;0.29;100.00
51439;BME280;38816;51.142;-0.974;2023-02-28T06:52:31;101787.94;;;0.31;100.00
51439;BME280;38816;51.142;-0.974;2023-02-28T06:54:57;101799.72;;;0.31;100.00
51439;BME280;38816;51.142;-0.974;2023-02-28T06:57:27;101806.31;;;0.39;100.00
51439;BME280;38816;51.142;-0.974;2023-02-28T06:59:55;101792.16;;;0.41;100.00
51439;BME280;38816;51.142;-0.974;2023-02-28T07:02:21;101800.34;;;0.38;100.00
51439;BME280;38816;51.142;-0.974;2023-02-28T07:04:46;101801.00;;;0.46;100.00
51439;BME280;38816;51.142;-0.974;2023-02-28T07:07:11;101797.72;;;0.37;100.00
51439;BME280;38816;51.142;-0.974;2023-02-28T07:09:37;101811.09;;;0.36;100.00
51439;BME280;38816;51.142;-0.974;2023-02-28T07:12:02;101807.06;;;0.38;100.00
51439;BME280;38816;51.142;-0.974;2023-02-28T07:14:28;101801.63;;;0.33;100.00
51439;BME280;38816;51.142;-0.974;2023-02-28T07:16:53;101814.28;;;0.33;100.00
51439;BME280;38816;51.142;-0.974;2023-02-28T07:19:18;101798.47;;;0.25;100.00
51439;BME280;38816;51.142;-0.974;2023-02-28T07:21:44;101815.91;;;0.33;100.00
51439;BME280;38816;51.142;-0.974;2023-02-28T07:24:10;101820.72;;;0.30;100.00
51439;BME280;38816;51.142;-0.974;2023-02-28T07:26:35;101824.00;;;0.29;100.00
51439;BME280;38816;51.142;-0.974;2023-02-28T07:29:01;101803.91;;;0.30;100.00
51439;BME280;38816;51.142;-0.974;2023-02-28T07:31:27;101816.41;;;0.39;100.00
51439;BME280;38816;51.142;-0.974;2023-02-28T07:33:53;101802.13;;;0.39;100.00
51439;BME280;38816;51.142;-0.974;2023-02-28T07:36:19;101809.84;;;0.41;100.00
51439;BME280;38816;51.142;-0.974;2023-02-28T07:38:46;101818.19;;;0.40;100.00
51439;BME280;38816;51.142;-0.974;2023-02-28T07:41:15;101808.19;;;0.31;100.00
51439;BME280;38816;51.142;-0.974;2023-02-28T07:43:41;101809.09;;;0.32;100.00
51439;BME280;38816;51.142;-0.974;2023-02-28T07:46:12;101809.09;;;0.32;100.00
51439;BME280;38816;51.142;-0.974;2023-02-28T07:48:38;101812.50;;;0.22;100.00
51439;BME280;38816;51.142;-0.974;2023-02-28T07:51:03;101826.53;;;0.18;100.00
51439;BME280;38816;51.142;-0.974;2023-02-28T07:53:29;101831.72;;;0.20;100.00
51439;BME280;38816;51.142;-0.974;2023-02-28T07:55:56;101823.38;;;0.11;100.00
51439;BME280;38816;51.142;-0.974;2023-02-28T07:58:22;101825.03;;;0.10;100.00
51439;BME280;38816;51.142;-0.974;2023-02-28T08:00:47;101828.44;;;0.11;100.00
51439;BME280;38816;51.142;-0.974;2023-02-28T08:03:13;101839.91;;;0.17;100.00
51439;BME280;38816;51.142;-0.974;2023-02-28T08:05:39;101835.13;;;0.20;100.00
51439;BME280;38816;51.142;-0.974;2023-02-28T08:08:05;101830.34;;;0.23;100.00
51439;BME280;38816;51.142;-0.974;2023-02-28T08:10:31;101828.53;;;0.22;100.00
51439;BME280;38816;51.142;-0.974;2023-02-28T08:12:57;101841.34;;;0.24;100.00
51439;BME280;38816;51.142;-0.974;2023-02-28T08:15:22;101839.81;;;0.26;100.00
51439;BME280;38816;51.142;-0.974;2023-02-28T08:17:47;101823.47;;;0.22;100.00
51439;BME280;38816;51.142;-0.974;2023-02-28T08:20:13;101840.84;;;0.28;100.00
51439;BME280;38816;51.142;-0.974;2023-02-28T08:22:38;101836.66;;;0.29;100.00
51439;BME280;38816;51.142;-0.974;2023-02-28T08:25:04;101824.00;;;0.29;100.00
51439;BME280;38816;51.142;-0.974;2023-02-28T08:27:29;101833.50;;;0.41;100.00
51439;BME280;38816;51.142;-0.974;2023-02-28T08:29:55;101830.97;;;0.52;100.00
51439;BME280;38816;51.142;-0.974;2023-02-28T08:32:20;101828.19;;;0.59;100.00
51439;BME280;38816;51.142;-0.974;2023-02-28T08:34:45;101835.38;;;0.74;100.00
51439;BME280;38816;51.142;-0.974;2023-02-28T08:37:11;101832.56;;;0.92;100.00
51439;BME280;38816;51.142;-0.974;2023-02-28T08:39:36;101832.78;;;1.05;100.00
51439;BME280;38816;51.142;-0.974;2023-02-28T08:42:03;101822.84;;;1.18;100.00
51439;BME280;38816;51.142;-0.974;2023-02-28T08:44:29;101805.13;;;1.18;100.00
51439;BME280;38816;51.142;-0.974;2023-02-28T08:46:54;101810.56;;;1.23;100.00
51439;BME280;38816;51.142;-0.974;2023-02-28T08:49:19;101820.22;;;1.49;100.00
51439;BME280;38816;51.142;-0.974;2023-02-28T08:51:45;101822.44;;;1.56;100.00
51439;BME280;38816;51.142;-0.974;2023-02-28T08:54:10;101817.44;;;1.68;100.00
51439;BME280;38816;51.142;-0.974;2023-02-28T08:56:38;101810.38;;;1.64;100.00
51439;BME280;38816;51.142;-0.974;2023-02-28T08:59:03;101812.94;;;1.75;100.00
51439;BME280;38816;51.142;-0.974;2023-02-28T09:01:29;101816.50;;;1.77;100.00
51439;BME280;38816;51.142;-0.974;2023-02-28T09:03:56;101825.75;;;1.99;100.00
51439;BME280;38816;51.142;-0.974;2023-02-28T09:06:24;101810.06;;;1.93;100.00
51439;BME280;38816;51.142;-0.974;2023-02-28T09:08:49;101820.16;;;2.03;100.00
51439;BME280;38816;51.142;-0.974;2023-02-28T09:11:15;101815.88;;;2.14;100.00
51439;BME280;38816;51.142;-0.974;2023-02-28T09:13:41;101817.00;;;2.29;100.00
51439;BME280;38816;51.142;-0.974;2023-02-28T09:16:09;101819.69;;;2.31;100.00
51439;BME280;38816;51.142;-0.974;2023-02-28T09:18:35;101820.22;;;2.38;100.00
51439;BME280;38816;51.142;-0.974;2023-02-28T09:21:04;101821.50;;;2.55;100.00
51439;BME280;38816;51.142;-0.974;2023-02-28T09:23:29;101825.78;;;2.56;100.00
51439;BME280;38816;51.142;-0.974;2023-02-28T09:25:55;101826.47;;;2.53;100.00
51439;BME280;38816;51.142;-0.974;2023-02-28T09:28:21;101804.50;;;2.54;100.00
51439;BME280;38816;51.142;-0.974;2023-02-28T09:30:52;101814.44;;;2.63;100.00
51439;BME280;38816;51.142;-0.974;2023-02-28T09:33:19;101805.72;;;2.83;100.00
51439;BME280;38816;51.142;-0.974;2023-02-28T09:35:47;101808.38;;;3.19;100.00
51439;BME280;38816;51.142;-0.974;2023-02-28T09:38:12;101811.78;;;3.43;100.00
51439;BME280;38816;51.142;-0.974;2023-02-28T09:40:53;101805.75;;;3.66;100.00
51439;BME280;38816;51.142;-0.974;2023-02-28T09:43:23;101820.69;;;3.87;100.00
51439;BME280;38816;51.142;-0.974;2023-02-28T09:46:00;101809.59;;;3.98;100.00
51439;BME280;38816;51.142;-0.974;2023-02-28T09:48:39;101806.25;;;4.11;100.00
51439;BME280;38816;51.142;-0.974;2023-02-28T09:53:57;101811.09;;;4.32;100.00
51439;BME280;38816;51.142;-0.974;2023-02-28T09:56:32;101812.16;;;4.36;100.00
51439;BME280;38816;51.142;-0.974;2023-02-28T09:59:17;101817.41;;;4.51;100.00
51439;BME280;38816;51.142;-0.974;2023-02-28T10:04:53;101816.84;;;4.55;100.00
51439;BME280;38816;51.142;-0.974;2023-02-28T10:10:14;101815.06;;;4.54;100.00
51439;BME280;38816;51.142;-0.974;2023-02-28T10:12:43;101817.03;;;4.71;100.00
51439;BME280;38816;51.142;-0.974;2023-02-28T10:15:14;101821.53;;;4.62;100.00
51439;BME280;38816;51.142;-0.974;2023-02-28T10:17:42;101825.66;;;4.60;100.00
51439;BME280;38816;51.142;-0.974;2023-02-28T10:20:17;101823.88;;;4.59;100.00
51439;BME280;38816;51.142;-0.974;2023-02-28T10:23:04;101811.72;;;4.42;100.00
51439;BME280;38816;51.142;-0.974;2023-02-28T10:25:35;101815.59;;;4.37;100.00
51439;BME280;38816;51.142;-0.974;2023-02-28T10:28:09;101825.38;;;4.30;100.00
51439;BME280;38816;51.142;-0.974;2023-02-28T10:30:39;101811.78;;;4.30;100.00
51439;BME280;38816;51.142;-0.974;2023-02-28T10:33:14;101808.72;;;4.22;100.00
51439;BME280;38816;51.142;-0.974;2023-02-28T10:35:43;101819.31;;;4.28;100.00
51439;BME280;38816;51.142;-0.974;2023-02-28T10:38:17;101820.50;;;4.34;100.00
51439;BME280;38816;51.142;-0.974;2023-02-28T10:40:43;101807.88;;;4.35;100.00
51439;BME280;38816;51.142;-0.974;2023-02-28T10:45:54;101797.22;;;4.54;100.00
51439;BME280;38816;51.142;-0.974;2023-02-28T10:58:33;101788.66;;;4.92;100.00
51439;BME280;38816;51.142;-0.974;2023-02-28T11:01:14;101784.31;;;4.91;100.00
51439;BME280;38816;51.142;-0.974;2023-02-28T11:03:40;101791.56;;;4.98;100.00
51439;BME280;38816;51.142;-0.974;2023-02-28T11:06:10;101775.41;;;4.97;100.00
51439;BME280;38816;51.142;-0.974;2023-02-28T11:08:47;101791.50;;;5.10;100.00
51439;BME280;38816;51.142;-0.974;2023-02-28T11:11:14;101785.97;;;5.03;100.00
51439;BME280;38816;51.142;-0.974;2023-02-28T11:13:40;101779.22;;;4.91;100.00
51439;BME280;38816;51.142;-0.974;2023-02-28T11:16:12;101782.75;;;4.93;100.00
51439;BME280;38816;51.142;-0.974;2023-02-28T11:18:53;101796.09;;;4.89;100.00
51439;BME280;38816;51.142;-0.974;2023-02-28T11:21:23;101790.50;;;4.94;100.00
51439;BME280;38816;51.142;-0.974;2023-02-28T11:23:53;101781.19;;;4.81;100.00
51439;BME280;38816;51.142;-0.974;2023-02-28T11:26:56;101786.47;;;4.85;100.00
51439;BME280;38816;51.142;-0.974;2023-02-28T11:29:24;101774.75;;;4.87;100.00
51439;BME280;38816;51.142;-0.974;2023-02-28T11:32:21;101780.50;;;4.97;100.00
51439;BME280;38816;51.142;-0.974;2023-02-28T11:37:29;101777.16;;;4.85;100.00
51439;BME280;38816;51.142;-0.974;2023-02-28T11:39:55;101768.84;;;4.88;100.00
51439;BME280;38816;51.142;-0.974;2023-02-28T11:48:17;101757.56;;;4.84;100.00
51439;BME280;38816;51.142;-0.974;2023-02-28T11:51:47;101756.91;;;5.00;100.00
51439;BME280;38816;51.142;-0.974;2023-02-28T11:57:08;101739.72;;;4.97;100.00
51439;BME280;38816;51.142;-0.974;2023-02-28T12:02:29;101749.63;;;4.93;100.00
51439;BME280;38816;51.142;-0.974;2023-02-28T12:05:21;101756.91;;;4.87;100.00
51439;BME280;38816;51.142;-0.974;2023-02-28T12:08:06;101735.22;;;4.80;100.00
51439;BME280;38816;51.142;-0.974;2023-02-28T12:16:36;101718.56;;;4.98;100.00
51439;BME280;38816;51.142;-0.974;2023-02-28T12:19:14;101730.41;;;5.11;100.00
51439;BME280;38816;51.142;-0.974;2023-02-28T12:25:02;101717.16;;;5.17;100.00
51439;BME280;38816;51.142;-0.974;2023-02-28T12:27:34;101710.22;;;5.14;100.00
51439;BME280;38816;51.142;-0.974;2023-02-28T12:30:13;101708.81;;;5.19;100.00
51439;BME280;38816;51.142;-0.974;2023-02-28T12:32:45;101694.28;;;5.31;100.00
51439;BME280;38816;51.142;-0.974;2023-02-28T12:35:14;101684.78;;;5.44;100.00
51439;BME280;38816;51.142;-0.974;2023-02-28T12:37:46;101671.13;;;5.56;100.00
51439;BME280;38816;51.142;-0.974;2023-02-28T12:40:20;101655.13;;;5.59;100.00
51439;BME280;38816;51.142;-0.974;2023-02-28T12:42:50;101633.13;;;5.61;100.00
51439;BME280;38816;51.142;-0.974;2023-02-28T12:45:39;101639.75;;;5.72;100.00
51439;BME280;38816;51.142;-0.974;2023-02-28T12:48:08;101634.72;;;5.89;100.00
51439;BME280;38816;51.142;-0.974;2023-02-28T12:50:36;101635.66;;;6.04;100.00
51439;BME280;38816;51.142;-0.974;2023-02-28T12:53:23;101659.22;;;6.15;100.00
51439;BME280;38816;51.142;-0.974;2023-02-28T12:58:45;101651.38;;;6.12;100.00
51439;BME280;38816;51.142;-0.974;2023-02-28T13:04:27;101648.28;;;5.88;100.00
51439;BME280;38816;51.142;-0.974;2023-02-28T13:09:59;101656.81;;;5.73;100.00
51439;BME280;38816;51.142;-0.974;2023-02-28T13:12:25;101648.09;;;5.84;100.00
51439;BME280;38816;51.142;-0.974;2023-02-28T13:15:03;101633.59;;;5.83;100.00
51439;BME280;38816;51.142;-0.974;2023-02-28T13:17:30;101609.50;;;5.93;100.00
51439;BME280;38816;51.142;-0.974;2023-02-28T13:19:58;101592.75;;;5.98;100.00
51439;BME280;38816;51.142;-0.974;2023-02-28T13:22:40;101616.97;;;6.05;100.00
51439;BME280;38816;51.142;-0.974;2023-02-28T13:27:50;101603.41;;;6.06;100.00
51439;BME280;38816;51.142;-0.974;2023-02-28T13:33:26;101581.94;;;6.02;100.00
51439;BME280;38816;51.142;-0.974;2023-02-28T13:38:41;101580.88;;;5.99;100.00
51439;BME280;38816;51.142;-0.974;2023-02-28T13:44:10;101578.19;;;5.96;100.00
51439;BME280;38816;51.142;-0.974;2023-02-28T13:51:51;101558.00;;;6.00;100.00
51439;BME280;38816;51.142;-0.974;2023-02-28T13:55:11;101570.31;;;6.07;100.00
51439;BME280;38816;51.142;-0.974;2023-02-28T14:02:41;101543.16;;;6.24;100.00
51439;BME280;38816;51.142;-0.974;2023-02-28T14:05:19;101541.91;;;6.32;100.00
51439;BME280;38816;51.142;-0.974;2023-02-28T14:07:53;101549.38;;;6.44;100.00
51439;BME280;38816;51.142;-0.974;2023-02-28T14:10:41;101551.69;;;6.56;100.00
51439;BME280;38816;51.142;-0.974;2023-02-28T14:13:41;101549.94;;;6.55;100.00
51439;BME280;38816;51.142;-0.974;2023-02-28T14:16:11;101552.81;;;6.45;100.00
51439;BME280;38816;51.142;-0.974;2023-02-28T14:18:41;101549.66;;;6.34;100.00
51439;BME280;38816;51.142;-0.974;2023-02-28T14:21:50;101560.41;;;6.28;100.00
51439;BME280;38816;51.142;-0.974;2023-02-28T14:24:21;101563.78;;;6.27;100.00
51439;BME280;38816;51.142;-0.974;2023-02-28T14:27:04;101557.53;;;6.22;100.00
51439;BME280;38816;51.142;-0.974;2023-02-28T14:29:52;101564.22;;;6.20;100.00
51439;BME280;38816;51.142;-0.974;2023-02-28T14:35:54;101554.81;;;6.19;100.00